< < Back
Terminal Aerodrome Forecast


Current Version              Previous Versions:   1  2  3  4  5  6  7  8  9  

Terminal Aerodrome Forecast

310
FTUS42 KFFC 040743 AAA
TAFATL
TAF AMD
KATL 040743Z 0408/0512 32003KT P6SM FEW150
     FM041400 01004KT P6SM SCT040 SCT250
     FM041800 03005KT P6SM SCT050 BKN200
     FM050000 02004KT P6SM BKN200=



Latest METAR

374
SAUS70 KWBC 041900 RRD
MTRATL
METAR KATL 041852Z 00000KT 10SM SCT047TCU SCT060 BKN250 32/21 A3002 RMK
AO2 SLP154 TCU SW SHRA SW T03170206


USA.gov is the U.S. government's official web portal to all federal, state and local government web resources and services.